US-0254 weather

Public forecast

Using degrees Fahrenheit for public forecast. Weather courtesy of forecast.io.

Closest aviation weather report (METAR) to Yuma Auxiliary Army Airfield 2

Closest report is Yuma MCAS/Yuma International Airport, 8.1 nm (15.0 km) NW. Retrieved 2020/08/13 12:57 UTC (1 hour ago):

KNYL 131257Z AUTO 24003KT 10SM CLR 32/16 A2975 RMK AO2 SLP068 T03220161

Closest aviation forecast (TAF) to Yuma Auxiliary Army Airfield 2

Forecast is more than 12 hours old.

Closest forecast is Yuma MCAS/Yuma International Airport, 8.1 nm (15.0 km) NW. Retrieved 2014/04/27 15:15 UTC (6 years ago):

TAF TAF COR KNYL 271500Z 2715/2815 VRB06KT 9999 FEW250 QNH2989INS BECMG 2716/2718 26007KT QNH2978INS BECMG 2806/2808 VRB05KT QNH2981INS AUTOMATED SENSOR METWATCH 2715 TIL 2815 TX22/2723Z TN10/2813Z COR 1545